Aérodrome :
LOGIN :

S'inscrire | Disclaimer

   EN    FR    IT 

 










Légende :    VFR   VFR Marginal   IFR   IFR Intensif   IFR Très Intensif
Visi : 
Plafond : 
>= 8 km
>= 3000ft
5 à 8 km
1000 à 3000 ft
1500m à 5 km
500 à 1000 ft
800 à 1500m
200 à 500 ft
< 800m
< 200 ft
Symboles :   Orages  Brouillard  Fortes neiges  Fortes précipitations  Vent > 20 kt
SIGMETs :   Divers  Orages  Givrage  Turbulence  Onde Orograph.  Cendres Volcan.






- Altitude de l'aérodrome : 194 ft


EBCV - Chièvres

DERNIER METAR :
  • 150015Z AUTO 01006KT 4800 BR BKN029/// BKN040/// BKN080/// 04/04 Q1001 GRN

METARs EXPIRÉS :
  • 142335Z AUTO 36004KT 3500 BR SCT024/// BKN040/// BKN072/// 04/04 Q1002 YLO
  • 142325Z AUTO 36005KT 4100 BR FEW028/// SCT041/// OVC072/// 04/04 Q1002 GRN
  • 142314Z AUTO 01004KT 3500 BR FEW028/// BKN042/// OVC074/// 04/04 Q1002 YLO
  • 142307Z AUTO 02004KT 4500 -DZ FEW028/// OVC043/// 04/04 Q1002 GRN
  • 142233Z AUTO 03005KT 4700 -RA FEW035/// OVC042/// 04/04 Q1002 GRN
  • 142224Z AUTO 03005KT 4300 -RA FEW035/// OVC040/// 04/04 Q1002 GRN
  • 142207Z AUTO 04003KT 3500 -RA OVC040/// 04/04 Q1002 YLO
  • 142125Z AUTO 36005KT 4500 -DZ OVC063/// 04/04 Q1002 GRN

TAF TAF EBCV
Valide du 14 à 19h jusqu'au 15 à 07h UTC


141541Z 1419/1507 06004KT 9999 FEW020 BKN120
TEMPO 1422/1507 04006KT 7000 -RA SCT015 BKN050
PROB30
TEMPO 1504/1507 4000 BR FEW005 BKN008 BY EBWM



MET'MAP, la Météo Aéronautique d'un coup d'oeil ! - Copyright ORBIFLY Décembre 2007 - Disclaimer

ORBIFLY MET'MAP TEAM :

Programmation & Développement : Alexandra Zaïnal
Conception & Développement : Baudouin d'Aumeries
Co-Programmation & Développement : Marc-Olivier Méhu
Soutien technique & logistique : Manuel Goepfert

Contact : metmap@orbifly.com




SOURCES & CREDITS :

   NOAA